createdAt,value
2018-02-10T00:01:59.317Z,50.57
2018-02-10T00:04:26.786Z,53.70
2018-02-10T00:06:54.256Z,47.13
2018-02-10T00:09:21.705Z,53.43
2018-02-10T00:11:49.169Z,57.27
2018-02-10T00:14:16.617Z,52.70
2018-02-10T00:16:44.077Z,53.47
2018-02-10T00:19:11.531Z,46.40
2018-02-10T00:21:39.013Z,52.70
2018-02-10T00:24:06.463Z,58.13
2018-02-10T00:26:33.925Z,54.13
2018-02-10T00:29:01.390Z,51.17
2018-02-10T00:31:28.857Z,55.00
2018-02-10T00:33:57.068Z,53.33
2018-02-10T00:36:24.533Z,56.77
2018-02-10T00:38:51.986Z,57.23
2018-02-10T00:41:19.440Z,61.00
2018-02-10T00:43:46.893Z,53.47
2018-02-10T00:46:14.404Z,53.37
2018-02-10T00:48:41.804Z,56.67
2018-02-10T00:51:09.261Z,58.40
2018-02-10T00:53:36.722Z,50.77
2018-02-10T00:56:04.182Z,53.30
2018-02-10T00:58:31.679Z,52.67
2018-02-10T01:00:59.105Z,52.30
2018-02-10T01:03:26.557Z,50.33
2018-02-10T01:05:54.008Z,52.70
2018-02-10T01:08:21.464Z,55.13
2018-02-10T01:10:48.921Z,51.80
2018-02-10T01:13:16.381Z,54.50
2018-02-10T01:15:43.836Z,53.37
2018-02-10T01:18:11.292Z,48.73
2018-02-10T01:20:38.758Z,53.33
2018-02-10T01:23:06.212Z,55.60
2018-02-10T01:25:34.432Z,50.00
2018-02-10T01:28:02.658Z,61.00
2018-02-10T01:30:30.110Z,54.67
2018-02-10T01:32:57.569Z,48.27
2018-02-10T01:35:25.025Z,53.13
2018-02-10T01:37:52.493Z,56.60
2018-02-10T01:40:19.950Z,50.83
2018-02-10T01:42:47.407Z,49.97
2018-02-10T01:45:14.852Z,53.50
2018-02-10T01:47:42.322Z,52.80
2018-02-10T01:50:21.628Z,55.00
2018-02-10T01:52:49.089Z,53.77
2018-02-10T01:55:16.546Z,54.80
2018-02-10T01:57:44.001Z,56.50
2018-02-10T02:00:11.456Z,55.00
2018-02-10T02:02:38.921Z,55.17
2018-02-10T02:05:06.375Z,53.77
2018-02-10T02:07:33.837Z,52.87
2018-02-10T02:10:01.284Z,56.30
2018-02-10T02:12:28.758Z,48.93
2018-02-10T02:14:56.196Z,54.00
2018-02-10T02:17:23.656Z,50.87
2018-02-10T02:19:51.109Z,53.77
2018-02-10T02:22:18.568Z,49.43
2018-02-10T02:24:46.027Z,53.43
2018-02-10T02:27:13.487Z,50.63
2018-02-10T02:29:40.942Z,52.50
2018-02-10T02:32:08.396Z,53.70
2018-02-10T02:34:35.848Z,50.27
2018-02-10T02:37:03.311Z,52.67
2018-02-10T02:39:30.771Z,53.90
2018-02-10T02:41:58.223Z,47.77
2018-02-10T02:44:25.686Z,49.33
2018-02-10T02:46:53.138Z,48.33
2018-02-10T02:49:20.597Z,51.93
2018-02-10T02:51:48.050Z,48.60
2018-02-10T02:54:15.509Z,48.03
2018-02-10T02:56:42.961Z,47.53
2018-02-10T02:59:10.421Z,48.70
2018-02-10T03:01:37.873Z,45.93
2018-02-10T03:04:05.328Z,40.73
2018-02-10T03:06:32.793Z,46.13
2018-02-10T03:09:00.255Z,49.00
2018-02-10T03:11:27.714Z,46.90
2018-02-10T03:13:55.169Z,47.97
2018-02-10T03:16:22.656Z,53.43
2018-02-10T03:18:50.093Z,48.30
2018-02-10T03:21:17.552Z,52.10
2018-02-10T03:23:45.013Z,49.93
2018-02-10T03:26:12.478Z,42.27
2018-02-10T03:28:39.939Z,49.47
2018-02-10T03:31:07.456Z,50.67
2018-02-10T03:33:34.897Z,47.40
2018-02-10T03:36:02.357Z,46.97
2018-02-10T03:38:29.804Z,50.70
2018-02-10T03:40:57.261Z,49.00
2018-02-10T03:43:24.714Z,44.40
2018-02-10T03:45:52.937Z,53.33
2018-02-10T03:48:20.388Z,52.60
2018-02-10T03:50:47.849Z,48.87
2018-02-10T03:53:15.305Z,52.17
2018-02-10T03:55:42.777Z,46.93
2018-02-10T03:58:10.240Z,49.60
2018-02-10T04:00:37.701Z,46.67
2018-02-10T04:03:05.153Z,46.37
2018-02-10T04:05:32.609Z,47.60
2018-02-10T04:08:00.063Z,47.73
2018-02-10T04:10:27.520Z,45.40
2018-02-10T04:12:54.973Z,49.17
2018-02-10T04:15:22.439Z,49.27
2018-02-10T04:17:49.885Z,42.90
2018-02-10T04:20:17.345Z,46.93
2018-02-10T04:22:44.796Z,47.20
2018-02-10T04:25:12.249Z,43.90
2018-02-10T04:27:39.710Z,48.13
2018-02-10T04:30:07.171Z,41.93
2018-02-10T04:32:34.624Z,48.60
2018-02-10T04:35:02.073Z,52.23
2018-02-10T04:37:29.538Z,47.17
2018-02-10T04:39:56.989Z,49.00
2018-02-10T04:42:24.448Z,52.10
2018-02-10T04:44:51.911Z,44.47
2018-02-10T04:47:19.370Z,47.87
2018-02-10T04:49:46.831Z,46.83
2018-02-10T04:52:14.294Z,48.77
2018-02-10T04:54:41.741Z,45.73
2018-02-10T04:57:09.202Z,47.93
2018-02-10T04:59:36.653Z,47.80
2018-02-10T05:02:04.114Z,43.60
2018-02-10T05:04:31.565Z,46.97
2018-02-10T05:06:59.033Z,42.87
2018-02-10T05:09:26.482Z,48.27
2018-02-10T05:11:53.947Z,48.70
2018-02-10T05:14:21.396Z,49.87
2018-02-10T05:16:48.854Z,45.97
2018-02-10T05:19:16.313Z,40.27
2018-02-10T05:21:43.777Z,46.43
2018-02-10T05:24:11.994Z,45.57
2018-02-10T05:26:39.460Z,46.67
2018-02-10T05:29:06.905Z,43.60
2018-02-10T05:31:34.413Z,46.00
2018-02-10T05:34:01.865Z,46.97
2018-02-10T05:36:29.320Z,47.90
2018-02-10T05:38:56.777Z,40.77
2018-02-10T05:41:24.238Z,51.30
2018-02-10T05:43:51.697Z,44.47
2018-02-10T05:46:19.149Z,44.73
2018-02-10T05:48:46.612Z,49.37
2018-02-10T05:51:14.065Z,46.33
2018-02-10T05:53:41.526Z,41.43
2018-02-10T05:56:08.986Z,44.53
2018-02-10T05:58:36.447Z,47.13
2018-02-10T06:01:04.661Z,47.07
2018-02-10T06:03:32.159Z,43.20
2018-02-10T06:05:59.585Z,38.30
2018-02-10T06:08:27.054Z,46.50
2018-02-10T06:10:54.509Z,44.67
2018-02-10T06:13:21.970Z,46.13
2018-02-10T06:15:49.422Z,40.03
2018-02-10T06:18:17.648Z,37.33
2018-02-10T06:20:45.102Z,39.20
2018-02-10T06:23:13.329Z,44.50
2018-02-10T06:25:40.784Z,44.03
2018-02-10T06:28:08.248Z,38.17
2018-02-10T06:30:35.697Z,44.53
2018-02-10T06:33:03.155Z,38.37
2018-02-10T06:35:30.604Z,46.20
2018-02-10T06:37:58.070Z,41.50
2018-02-10T06:40:25.539Z,45.20
2018-02-10T06:42:52.980Z,38.47
2018-02-10T06:45:20.438Z,41.27
2018-02-10T06:47:47.902Z,42.80
2018-02-10T06:50:15.349Z,37.13
2018-02-10T06:52:42.829Z,42.80
2018-02-10T06:55:10.276Z,45.50
2018-02-10T06:57:37.729Z,37.57
2018-02-10T07:00:05.188Z,38.13
2018-02-10T07:02:32.708Z,39.50
2018-02-10T07:05:00.166Z,40.50
2018-02-10T07:07:27.613Z,45.80
2018-02-10T07:09:55.083Z,45.50
2018-02-10T07:12:22.537Z,49.23
2018-02-10T07:14:49.992Z,45.93
2018-02-10T07:17:17.450Z,42.77
2018-02-10T07:19:44.912Z,41.83
2018-02-10T07:22:12.361Z,46.20
2018-02-10T07:24:39.826Z,40.47
2018-02-10T07:27:07.280Z,41.27
2018-02-10T07:29:34.746Z,42.07
2018-02-10T07:32:02.198Z,40.63
2018-02-10T07:34:29.667Z,42.70
2018-02-10T07:36:57.113Z,50.67
2018-02-10T07:39:24.565Z,42.50
2018-02-10T07:44:26.748Z,42.73
2018-02-10T07:46:54.202Z,42.43
2018-02-10T07:49:21.689Z,49.90
2018-02-10T07:51:49.189Z,41.63
2018-02-10T07:54:17.429Z,49.90
2018-02-10T07:56:44.881Z,47.67
2018-02-10T07:59:12.349Z,49.57
2018-02-10T08:01:39.805Z,53.63
2018-02-10T08:04:07.261Z,51.20
2018-02-10T08:06:34.721Z,53.50
2018-02-10T08:09:02.174Z,46.47
2018-02-10T08:11:29.633Z,51.93
2018-02-10T08:13:57.085Z,51.33
2018-02-10T08:16:24.549Z,51.67
2018-02-10T08:18:51.996Z,51.60
2018-02-10T08:21:19.461Z,57.10
2018-02-10T08:23:46.917Z,52.03
2018-02-10T08:26:14.373Z,48.67
2018-02-10T08:28:41.825Z,54.17
2018-02-10T08:31:09.284Z,50.20
2018-02-10T08:33:36.732Z,54.20
2018-02-10T08:36:04.215Z,54.63
2018-02-10T08:38:31.652Z,56.73
2018-02-10T08:40:59.108Z,52.77
2018-02-10T08:43:26.581Z,54.43
2018-02-10T08:45:54.812Z,65.10
2018-02-10T08:48:22.264Z,50.50
2018-02-10T08:50:49.727Z,56.50
2018-02-10T08:53:17.176Z,53.50
2018-02-10T08:55:44.648Z,53.20
2018-02-10T08:58:12.102Z,55.63
2018-02-10T09:00:39.562Z,54.97
2018-02-10T09:03:07.021Z,57.37
2018-02-10T09:05:34.497Z,51.60
2018-02-10T09:08:01.953Z,60.43
2018-02-10T09:10:29.404Z,55.00
2018-02-10T09:12:56.863Z,50.83
2018-02-10T09:15:24.373Z,55.70
2018-02-10T09:17:51.870Z,55.93
2018-02-10T09:20:19.277Z,60.83
2018-02-10T09:22:46.732Z,60.50
2018-02-10T09:25:14.190Z,51.00
2018-02-10T09:27:41.661Z,51.20
2018-02-10T09:30:09.112Z,51.37
2018-02-10T09:32:36.575Z,54.30
2018-02-10T09:35:04.025Z,51.40
2018-02-10T09:37:31.489Z,51.70
2018-02-10T09:39:58.952Z,48.17
2018-02-10T09:42:26.418Z,49.70
2018-02-10T09:44:53.868Z,50.90
2018-02-10T09:47:21.325Z,49.10
2018-02-10T09:49:48.783Z,50.83
2018-02-10T09:52:16.245Z,50.73
2018-02-10T09:54:43.704Z,50.90
2018-02-10T09:57:11.169Z,48.80
2018-02-10T09:59:38.634Z,48.17
2018-02-10T10:02:06.092Z,46.63
2018-02-10T10:04:33.547Z,51.33
2018-02-10T10:07:01.005Z,44.23
2018-02-10T10:09:28.466Z,52.40
2018-02-10T10:11:55.929Z,45.43
2018-02-10T10:14:23.431Z,50.10
2018-02-10T10:16:50.874Z,45.43
2018-02-10T10:19:18.337Z,43.40
2018-02-10T10:21:45.790Z,40.23
2018-02-10T10:24:13.248Z,44.20
2018-02-10T10:26:40.709Z,38.60
2018-02-10T10:29:08.176Z,42.63
2018-02-10T10:31:35.634Z,39.00
2018-02-10T10:34:03.096Z,40.20
2018-02-10T10:36:30.556Z,37.77
2018-02-10T10:38:58.017Z,42.17
2018-02-10T10:41:25.481Z,46.20
2018-02-10T10:43:52.937Z,44.43
2018-02-10T10:46:20.423Z,39.60
2018-02-10T10:48:47.928Z,39.37
2018-02-10T10:51:15.387Z,36.70
2018-02-10T10:53:42.846Z,39.47
2018-02-10T10:56:10.307Z,38.00
2018-02-10T10:58:37.765Z,37.37
2018-02-10T11:01:05.217Z,38.33
2018-02-10T11:03:32.694Z,38.40
2018-02-10T11:06:00.144Z,37.70
2018-02-10T11:08:27.624Z,38.17
2018-02-10T11:10:55.077Z,40.03
2018-02-10T11:13:22.537Z,35.93
2018-02-10T11:15:50.128Z,37.83
2018-02-10T11:18:18.355Z,37.77
2018-02-10T11:20:45.813Z,37.13
2018-02-10T11:23:13.281Z,40.33
2018-02-10T11:25:40.740Z,38.90
2018-02-10T11:28:08.220Z,41.23
2018-02-10T11:30:36.441Z,33.93
2018-02-10T11:33:03.897Z,43.60
2018-02-10T11:35:31.358Z,43.27
2018-02-10T11:37:58.822Z,42.83
2018-02-10T11:40:26.277Z,37.37
2018-02-10T11:42:53.742Z,38.80
2018-02-10T11:45:21.969Z,40.47
2018-02-10T11:47:49.433Z,41.43
2018-02-10T11:50:16.908Z,35.90
2018-02-10T11:52:44.369Z,37.47
2018-02-10T11:55:11.837Z,37.93
2018-02-10T11:57:39.293Z,38.77
2018-02-10T12:00:06.761Z,34.30
2018-02-10T12:02:34.988Z,30.97
2018-02-10T12:05:02.445Z,34.33
2018-02-10T12:07:29.901Z,32.30
2018-02-10T12:09:57.368Z,32.00
2018-02-10T12:12:24.817Z,28.47
2018-02-10T12:14:52.292Z,30.07
2018-02-10T12:17:19.742Z,33.33
2018-02-10T12:19:47.206Z,30.47
2018-02-10T12:22:14.665Z,24.53
2018-02-10T12:24:42.141Z,30.27
2018-02-10T12:27:09.594Z,24.63
2018-02-10T12:29:37.062Z,24.10
2018-02-10T12:32:04.526Z,24.90
2018-02-10T12:34:31.977Z,23.90
2018-02-10T12:36:59.432Z,20.73
2018-02-10T12:39:26.897Z,24.17
2018-02-10T12:41:55.445Z,24.50
2018-02-10T12:44:22.917Z,24.47
2018-02-10T12:46:51.363Z,25.40
2018-02-10T12:49:25.517Z,20.73
2018-02-10T12:51:52.966Z,23.10
2018-02-10T12:54:20.417Z,22.17
2018-02-10T12:56:47.884Z,25.77
2018-02-10T12:59:15.345Z,23.13
2018-02-10T13:01:42.809Z,25.10
2018-02-10T13:04:10.282Z,25.30
2018-02-10T13:06:37.732Z,22.50
2018-02-10T13:09:05.185Z,24.90
2018-02-10T13:11:32.649Z,23.30
2018-02-10T13:14:00.101Z,22.77
2018-02-10T13:16:27.823Z,23.47
2018-02-10T13:18:55.272Z,23.20
2018-02-10T13:21:22.742Z,21.10
2018-02-10T13:23:50.442Z,22.53
2018-02-10T13:26:18.093Z,18.97
2018-02-10T13:28:45.557Z,18.80
2018-02-10T13:31:13.021Z,19.93
2018-02-10T13:33:40.470Z,15.93
2018-02-10T13:36:07.934Z,13.90
2018-02-10T13:38:35.382Z,14.63
2018-02-10T13:41:04.461Z,13.03
2018-02-10T13:43:31.912Z,14.50
2018-02-10T13:45:59.369Z,13.80
2018-02-10T13:48:37.727Z,13.97
2018-02-10T13:51:08.138Z,17.60
2018-02-10T13:53:35.965Z,19.67
2018-02-10T13:56:03.414Z,17.97
2018-02-10T13:58:30.882Z,19.60
2018-02-10T14:00:58.337Z,20.57
2018-02-10T14:03:25.801Z,19.10
2018-02-10T14:05:53.257Z,18.00
2018-02-10T14:08:28.330Z,19.47
2018-02-10T14:10:56.544Z,19.10
2018-02-10T14:13:24.013Z,22.87
2018-02-10T14:15:51.481Z,21.30
2018-02-10T14:18:18.978Z,20.00
2018-02-10T14:20:46.400Z,18.10
2018-02-10T14:23:13.873Z,24.03
2018-02-10T14:25:41.337Z,25.07
2018-02-10T14:28:09.564Z,24.43
2018-02-10T14:30:37.036Z,24.47
2018-02-10T14:33:04.489Z,28.50
2018-02-10T14:35:31.949Z,24.93
2018-02-10T14:37:59.409Z,28.20
2018-02-10T14:40:26.866Z,25.03
2018-02-10T14:42:54.336Z,31.63
2018-02-10T14:45:21.800Z,26.27
2018-02-10T14:47:49.261Z,25.70
2018-02-10T14:50:17.480Z,27.80
2018-02-10T14:52:44.941Z,27.80
2018-02-10T14:55:12.394Z,26.67
2018-02-10T14:57:39.861Z,26.77
2018-02-10T15:00:07.317Z,25.60
2018-02-10T15:02:34.776Z,27.50
2018-02-10T15:05:02.229Z,21.87
2018-02-10T15:07:29.693Z,27.47
2018-02-10T15:09:57.152Z,25.73
2018-02-10T15:12:24.627Z,27.97
2018-02-10T15:14:52.083Z,22.33
2018-02-10T15:17:19.530Z,25.83
2018-02-10T15:19:47.970Z,22.83
2018-02-10T15:22:15.424Z,23.90
2018-02-10T15:24:42.880Z,21.50
2018-02-10T15:27:10.337Z,20.13
2018-02-10T15:29:49.809Z,18.63
2018-02-10T15:32:29.317Z,21.20
2018-02-10T15:34:58.733Z,22.13
2018-02-10T15:37:26.194Z,20.50
2018-02-10T15:39:53.654Z,22.03
2018-02-10T15:42:21.109Z,24.07
2018-02-10T15:44:48.564Z,18.60
2018-02-10T15:47:16.133Z,22.07
2018-02-10T15:49:43.578Z,27.63
2018-02-10T15:52:11.034Z,23.90
2018-02-10T15:54:38.494Z,21.50
2018-02-10T15:57:05.957Z,20.93
2018-02-10T15:59:33.417Z,21.00
2018-02-10T16:02:00.869Z,28.30
2018-02-10T16:04:28.341Z,35.30
2018-02-10T16:06:55.802Z,29.30
2018-02-10T16:09:23.269Z,24.00
2018-02-10T16:11:50.729Z,24.43
2018-02-10T16:14:18.198Z,22.63
2018-02-10T16:16:45.649Z,25.83
2018-02-10T16:19:13.102Z,25.77
2018-02-10T16:21:40.554Z,24.97
2018-02-10T16:24:08.021Z,22.53
2018-02-10T16:26:35.470Z,24.70
2018-02-10T16:29:02.938Z,23.20
2018-02-10T16:31:31.157Z,27.73
2018-02-10T16:33:58.629Z,24.63
2018-02-10T16:36:26.088Z,27.87
2018-02-10T16:38:53.549Z,25.30
2018-02-10T16:41:21.009Z,25.40
2018-02-10T16:43:49.445Z,24.67
2018-02-10T16:46:16.902Z,27.70
2018-02-10T16:48:44.360Z,24.10
2018-02-10T16:51:11.813Z,22.90
2018-02-10T16:53:39.261Z,22.40
2018-02-10T16:56:07.489Z,25.80
2018-02-10T16:58:34.939Z,25.40
2018-02-10T17:01:02.401Z,22.13
2018-02-10T17:03:29.859Z,27.43
2018-02-10T17:05:57.329Z,21.90
2018-02-10T17:08:24.789Z,25.33
2018-02-10T17:10:52.257Z,25.20
2018-02-10T17:13:19.708Z,26.80
2018-02-10T17:15:47.169Z,24.80
2018-02-10T17:18:15.541Z,25.80
2018-02-10T17:20:43.003Z,26.47
2018-02-10T17:23:10.453Z,26.97
2018-02-10T17:25:37.912Z,23.63
2018-02-10T17:28:05.365Z,24.27
2018-02-10T17:30:32.829Z,26.07
2018-02-10T17:33:00.277Z,29.87
2018-02-10T17:35:27.786Z,32.40
2018-02-10T17:37:55.237Z,29.87
2018-02-10T17:40:22.705Z,27.03
2018-02-10T17:42:50.165Z,22.37
2018-02-10T17:45:17.617Z,24.07
2018-02-10T17:47:45.083Z,22.93
2018-02-10T17:50:12.534Z,26.20
2018-02-10T17:52:39.996Z,25.23
2018-02-10T17:55:07.449Z,22.47
2018-02-10T17:57:34.913Z,35.07
2018-02-10T18:00:02.369Z,27.20
2018-02-10T18:02:29.840Z,33.70
2018-02-10T18:04:57.290Z,24.30
2018-02-10T18:07:24.761Z,29.93
2018-02-10T18:09:52.219Z,23.80
2018-02-10T18:12:19.680Z,27.53
2018-02-10T18:14:47.138Z,21.93
2018-02-10T18:17:14.602Z,23.63
2018-02-10T18:19:42.053Z,22.00
2018-02-10T18:22:09.509Z,26.10
2018-02-10T18:24:36.962Z,22.20
2018-02-10T18:27:04.421Z,23.37
2018-02-10T18:29:31.874Z,24.37
2018-02-10T18:31:59.334Z,44.10
2018-02-10T18:34:26.793Z,28.83
2018-02-10T18:36:54.260Z,24.83
2018-02-10T18:39:22.488Z,29.37
2018-02-10T18:41:49.945Z,23.43
2018-02-10T18:44:17.402Z,23.90
2018-02-10T18:46:44.873Z,24.17
2018-02-10T18:49:12.373Z,24.83
2018-02-10T18:51:40.598Z,23.77
2018-02-10T18:54:08.054Z,25.20
2018-02-10T18:56:35.553Z,26.70
2018-02-10T18:59:02.977Z,23.57
2018-02-10T19:01:30.436Z,29.30
2018-02-10T19:03:57.885Z,24.93
2018-02-10T19:06:25.358Z,21.90
2018-02-10T19:08:52.859Z,22.87
2018-02-10T19:11:20.282Z,25.43
2018-02-10T19:13:47.741Z,21.10
2018-02-10T19:16:15.195Z,19.97
2018-02-10T19:18:42.654Z,21.53
2018-02-10T19:21:10.114Z,19.93
2018-02-10T19:23:37.574Z,20.80
2018-02-10T19:26:05.029Z,20.80
2018-02-10T19:28:32.498Z,21.30
2018-02-10T19:31:00.719Z,18.87
2018-02-10T19:33:28.176Z,22.93
2018-02-10T19:35:55.633Z,22.00
2018-02-10T19:38:23.101Z,22.13
2018-02-10T19:40:50.558Z,20.53
2018-02-10T19:43:18.018Z,19.73
2018-02-10T19:45:45.471Z,21.73
2018-02-10T19:48:12.933Z,23.60
2018-02-10T19:50:40.389Z,21.43
2018-02-10T19:53:07.849Z,18.37
2018-02-10T19:55:35.305Z,21.33
2018-02-10T19:58:02.773Z,18.00
2018-02-10T20:00:30.221Z,18.87
2018-02-10T20:02:57.685Z,22.07
2018-02-10T20:05:25.202Z,19.60
2018-02-10T20:07:52.614Z,20.40
2018-02-10T20:10:20.835Z,20.07
2018-02-10T20:12:48.308Z,19.43
2018-02-10T20:15:15.762Z,19.40
2018-02-10T20:17:43.230Z,19.53
2018-02-10T20:20:10.684Z,17.73
2018-02-10T20:22:38.138Z,15.80
2018-02-10T20:25:05.597Z,18.40
2018-02-10T20:27:33.052Z,16.27
2018-02-10T20:30:00.524Z,15.50
2018-02-10T20:32:27.999Z,16.77
2018-02-10T20:34:56.223Z,16.20
2018-02-10T20:37:23.678Z,18.20
2018-02-10T20:39:51.133Z,15.77
2018-02-10T20:42:18.595Z,13.50
2018-02-10T20:44:46.054Z,13.27
2018-02-10T20:47:13.517Z,16.30
2018-02-10T20:49:40.977Z,15.17
2018-02-10T20:52:08.434Z,13.53
2018-02-10T20:54:35.897Z,13.53
2018-02-10T20:57:03.349Z,12.37
2018-02-10T20:59:30.814Z,13.40
2018-02-10T21:01:58.269Z,14.17
2018-02-10T21:04:25.737Z,13.50
2018-02-10T21:06:53.180Z,10.90
2018-02-10T21:09:20.640Z,11.80
2018-02-10T21:11:48.096Z,11.80
2018-02-10T21:14:15.562Z,11.50
2018-02-10T21:16:43.011Z,9.87
2018-02-10T21:19:10.471Z,10.70
2018-02-10T21:21:37.920Z,11.03
2018-02-10T21:24:05.394Z,10.20
2018-02-10T21:26:32.849Z,11.27
2018-02-10T21:29:00.305Z,13.23
2018-02-10T21:31:27.792Z,11.93
2018-02-10T21:33:56.004Z,9.93
2018-02-10T21:36:23.465Z,10.83
2018-02-10T21:38:50.929Z,10.83
2018-02-10T21:41:19.157Z,11.13
2018-02-10T21:43:46.620Z,9.53
2018-02-10T21:46:14.070Z,11.60
2018-02-10T21:48:41.521Z,10.43
2018-02-10T21:51:08.981Z,9.30
2018-02-10T21:53:36.432Z,9.20
2018-02-10T21:56:04.660Z,10.70
2018-02-10T21:58:32.109Z,10.10
2018-02-10T22:00:59.566Z,9.70
2018-02-10T22:03:27.015Z,9.20
2018-02-10T22:05:54.478Z,10.57
2018-02-10T22:08:21.924Z,11.40
2018-02-10T22:10:49.376Z,8.67
2018-02-10T22:13:16.827Z,8.57
2018-02-10T22:15:44.287Z,10.00
2018-02-10T22:18:11.730Z,7.93
2018-02-10T22:20:39.185Z,9.70
2018-02-10T22:23:06.630Z,9.97
2018-02-10T22:25:34.086Z,9.40
2018-02-10T22:28:02.307Z,8.90
2018-02-10T22:30:29.750Z,8.93
2018-02-10T22:32:57.222Z,9.43
2018-02-10T22:35:24.658Z,9.97
2018-02-10T22:37:52.113Z,9.27
2018-02-10T22:40:19.562Z,10.60
2018-02-10T22:42:47.019Z,8.90
2018-02-10T22:45:14.470Z,10.17
2018-02-10T22:47:41.924Z,10.50
2018-02-10T22:50:09.368Z,8.30
2018-02-10T22:52:37.593Z,10.87
2018-02-10T22:55:05.045Z,9.60
2018-02-10T22:57:32.539Z,9.03
2018-02-10T22:59:59.986Z,9.00
2018-02-10T23:02:27.441Z,9.07
2018-02-10T23:04:54.888Z,11.20
2018-02-10T23:07:22.377Z,9.37
2018-02-10T23:09:50.596Z,10.77
2018-02-10T23:12:18.057Z,8.63
2018-02-10T23:14:45.497Z,9.50
2018-02-10T23:17:13.508Z,9.07
2018-02-10T23:19:40.953Z,9.77
2018-02-10T23:22:08.404Z,11.83
2018-02-10T23:24:35.901Z,9.53
2018-02-10T23:27:04.118Z,9.67
2018-02-10T23:29:31.564Z,9.97
2018-02-10T23:31:59.049Z,9.00
2018-02-10T23:34:26.509Z,9.40
2018-02-10T23:36:53.964Z,9.33
2018-02-10T23:39:22.194Z,9.30
2018-02-10T23:41:49.653Z,10.00
2018-02-10T23:44:17.100Z,9.60
2018-02-10T23:46:45.323Z,9.20
2018-02-10T23:49:12.774Z,11.10
2018-02-10T23:51:40.241Z,10.20
2018-02-10T23:54:07.692Z,13.33
2018-02-10T23:56:35.149Z,8.70
2018-02-10T23:59:02.605Z,9.53
